EGBBEGLC

Guest
Details From EGBB - Birmingham
To EGLC - London City
Flight Number -
Tags generated
Created
Modified
Stats Distance 88 nm / 163 km
Max Altitude 3,100 ft / 945 m
Waypoints 3
Social Downloads 0
Likes 0
Share VATSIM

Download

Looking for another format? Having issues loading an existing format? Contact us
Advertisement - Login to hide

Notes

Basic altitude profile: - Ascent Rate: 2500ft/min - Ascent Speed: 140kts - Cruise Altitude: 12000ft - Cruise Speed: 180kts - Descent Rate: 1500ft/min - Descent Speed: 140kts Options: - Use NATs: yes - Use PACOTS: yes - Use low airways: yes - Use high airways: yes

Route

EGBB IPRIL EGLC

ID Type Via Altitude Latitude Longitude Leg Dist Tot Dist Heading (true) Name
O EGBB APT - 0 ft / 0 m 52.45597˚ -1.75038˚ - 0 nm - Birmingham
IPRIL FIX - 3,100 ft / 945 m 51.67472˚ -0.22639˚ 73 nm 73 nm 129° / 130° -
O EGLC APT - 0 ft / 0 m 51.50523˚ 0.05518˚ 14 nm 87 nm 134° / 134° London City

Altitude Profile

Advertisement - Login to hide

EGBB

Details ICAO EGBB (BHX)
Name Birmingham
Region United Kingdom
Timezone Europe/London (UTC+0.0)
Stats Elevation 327 ft / 100 m (AMSL)
Location 52.455966° -1.750378°
Runways 1
Magnetic Variation 1.139° W

METAR

EGBB 170820Z 20005KT 170V240 CAVOK 03/03 Q1022

Decode

TAF

TAF AMD TAF AMD EGBB 170639Z 1706/1806 VRB02KT 9999 FEW008 PROB30 TEMPO 1706/1711 4000 BR BKN006 BECMG 1708/1711 21010KT 6000 TEMPO 1711/1719 3000 RADZ BKN003 BECMG 1716/1719 31006KT 9999 TEMPO 1802/1806 8000 BKN008

Decode

Departure Runways

ID Width Length Bearing (true) Bearing (mag) Surface Threshold Offset Overrun Length
15 151 ft / 46 m 8,477 ft / 2,584 m 145.87° 147.01° Asphalt 925 ft / 282 m 0 ft / 0 m
33 151 ft / 46 m 8,477 ft / 2,584 m 325.89° 327.03° Asphalt 958 ft / 292 m 0 ft / 0 m

EGLC

Details ICAO EGLC (LCY)
Name London City
Region United Kingdom
Timezone Europe/London (UTC+0.0)
Stats Elevation 19 ft / 6 m (AMSL)
Location 51.505231° 0.055175°
Runways 1
Magnetic Variation 0.383° W

METAR

EGLC 170820Z AUTO 22005KT 180V240 5000 HZ OVC004 03/01 Q1025

Decode

TAF

Not found

Destination Runways

ID Width Length Bearing (true) Bearing (mag) Surface Threshold Offset Overrun Length
09 98 ft / 30 m 4,931 ft / 1,503 m 92.89° 93.27° Concrete 322 ft / 98 m 164 ft / 50 m
27 98 ft / 30 m 4,931 ft / 1,503 m 272.91° 273.29° Concrete 243 ft / 74 m 279 ft / 85 m

Approach Navaids

Runway Type Ident Frequency Range Bearing (true) Bearing (mag) Slope Elevation
09 Localiser ILST 111.15 MHz 18 nm / 33 km 92.91° 93.29° - 19 ft / 6 m (AMSL)
09 Glidescope ILST 111.15 MHz 10 nm / 19 km 92.90° 93.29° 5.05° 35 ft / 11 m (AMSL)
09 DME ILST 111.15 MHz 18 nm / 33 km - - - 48 ft / 15 m (AMSL)
27 Localiser ILSR 111.15 MHz 18 nm / 33 km 272.89° 273.28° - 19 ft / 6 m (AMSL)
27 Glidescope ILSR 111.15 MHz 10 nm / 19 km 272.90° 273.29° 5.50° 35 ft / 11 m (AMSL)
27 DME ILSR 111.15 MHz 18 nm / 33 km - - - 48 ft / 15 m (AMSL)

Popular Alternatives